sensor_id;sensor_type;location;lat;lon;timestamp;temperature;humidity
65408;DHT22;52017;51.230;-2.322;2022-12-11T00:02:54;-0.50;81.40
65408;DHT22;52017;51.230;-2.322;2022-12-11T00:06:38;-0.60;81.50
65408;DHT22;52017;51.230;-2.322;2022-12-11T00:10:20;-0.50;81.40
65408;DHT22;52017;51.230;-2.322;2022-12-11T00:14:02;-0.50;81.30
65408;DHT22;52017;51.230;-2.322;2022-12-11T00:17:44;-0.50;81.30
65408;DHT22;52017;51.230;-2.322;2022-12-11T00:21:26;-0.50;81.30
65408;DHT22;52017;51.230;-2.322;2022-12-11T00:25:09;-0.50;81.30
65408;DHT22;52017;51.230;-2.322;2022-12-11T00:28:53;-0.50;81.30
65408;DHT22;52017;51.230;-2.322;2022-12-11T00:32:36;-0.50;81.20
65408;DHT22;52017;51.230;-2.322;2022-12-11T00:36:21;-0.50;81.10
65408;DHT22;52017;51.230;-2.322;2022-12-11T00:40:04;-0.50;81.10
65408;DHT22;52017;51.230;-2.322;2022-12-11T00:43:46;-0.50;81.10
65408;DHT22;52017;51.230;-2.322;2022-12-11T00:47:28;-0.60;81.00
65408;DHT22;52017;51.230;-2.322;2022-12-11T00:51:11;-0.50;81.00
65408;DHT22;52017;51.230;-2.322;2022-12-11T00:54:54;-0.60;80.90
65408;DHT22;52017;51.230;-2.322;2022-12-11T00:58:36;-0.60;81.00
65408;DHT22;52017;51.230;-2.322;2022-12-11T01:02:18;-0.60;81.00
65408;DHT22;52017;51.230;-2.322;2022-12-11T01:06:01;-0.70;80.90
65408;DHT22;52017;51.230;-2.322;2022-12-11T01:09:43;-0.70;80.90
65408;DHT22;52017;51.230;-2.322;2022-12-11T01:13:43;-0.70;80.80
65408;DHT22;52017;51.230;-2.322;2022-12-11T01:17:27;-0.70;80.80
65408;DHT22;52017;51.230;-2.322;2022-12-11T01:21:11;-0.80;80.80
65408;DHT22;52017;51.230;-2.322;2022-12-11T01:24:54;-0.90;80.80
65408;DHT22;52017;51.230;-2.322;2022-12-11T01:28:37;-0.80;80.90
65408;DHT22;52017;51.230;-2.322;2022-12-11T01:32:19;-0.80;80.80
65408;DHT22;52017;51.230;-2.322;2022-12-11T01:36:15;-0.90;80.70
65408;DHT22;52017;51.230;-2.322;2022-12-11T01:39:58;-0.90;80.60
65408;DHT22;52017;51.230;-2.322;2022-12-11T01:44:03;-0.90;80.60
65408;DHT22;52017;51.230;-2.322;2022-12-11T01:47:45;-0.90;80.60
65408;DHT22;52017;51.230;-2.322;2022-12-11T01:51:30;-0.90;80.60
65408;DHT22;52017;51.230;-2.322;2022-12-11T01:55:15;-1.00;80.60
65408;DHT22;52017;51.230;-2.322;2022-12-11T01:59:01;-1.00;80.60
65408;DHT22;52017;51.230;-2.322;2022-12-11T02:02:47;-1.00;80.70
65408;DHT22;52017;51.230;-2.322;2022-12-11T02:10:21;-0.90;80.70
65408;DHT22;52017;51.230;-2.322;2022-12-11T02:14:07;-0.90;80.70
65408;DHT22;52017;51.230;-2.322;2022-12-11T02:21:55;-0.90;80.50
65408;DHT22;52017;51.230;-2.322;2022-12-11T02:33:51;-1.00;80.40
65408;DHT22;52017;51.230;-2.322;2022-12-11T02:37:31;-1.00;80.30
65408;DHT22;52017;51.230;-2.322;2022-12-11T02:41:17;-1.10;80.30
65408;DHT22;52017;51.230;-2.322;2022-12-11T02:45:00;-1.00;80.40
65408;DHT22;52017;51.230;-2.322;2022-12-11T02:48:48;-1.10;80.40
65408;DHT22;52017;51.230;-2.322;2022-12-11T02:52:31;-1.10;80.40
65408;DHT22;52017;51.230;-2.322;2022-12-11T02:56:45;-1.10;80.40
65408;DHT22;52017;51.230;-2.322;2022-12-11T03:00:28;-1.00;80.30
65408;DHT22;52017;51.230;-2.322;2022-12-11T03:04:10;-0.90;80.30
65408;DHT22;52017;51.230;-2.322;2022-12-11T03:07:52;-1.00;80.20
65408;DHT22;52017;51.230;-2.322;2022-12-11T03:11:34;-0.90;80.10
65408;DHT22;52017;51.230;-2.322;2022-12-11T03:15:18;-0.90;80.10
65408;DHT22;52017;51.230;-2.322;2022-12-11T03:19:23;-0.80;80.10
65408;DHT22;52017;51.230;-2.322;2022-12-11T03:23:19;-0.80;79.90
65408;DHT22;52017;51.230;-2.322;2022-12-11T03:31:13;-0.70;80.00
65408;DHT22;52017;51.230;-2.322;2022-12-11T03:35:10;-0.60;80.00
65408;DHT22;52017;51.230;-2.322;2022-12-11T03:39:02;-0.50;80.00
65408;DHT22;52017;51.230;-2.322;2022-12-11T03:42:49;-0.50;80.00
65408;DHT22;52017;51.230;-2.322;2022-12-11T03:46:35;-0.50;79.90
65408;DHT22;52017;51.230;-2.322;2022-12-11T03:50:21;-0.50;79.80
65408;DHT22;52017;51.230;-2.322;2022-12-11T03:54:04;-0.50;79.60
65408;DHT22;52017;51.230;-2.322;2022-12-11T03:57:47;-0.50;79.60
65408;DHT22;52017;51.230;-2.322;2022-12-11T04:01:30;-0.50;79.50
65408;DHT22;52017;51.230;-2.322;2022-12-11T04:05:12;-0.50;79.60
65408;DHT22;52017;51.230;-2.322;2022-12-11T04:08:54;-0.50;79.60
65408;DHT22;52017;51.230;-2.322;2022-12-11T04:12:36;-0.50;79.60
65408;DHT22;52017;51.230;-2.322;2022-12-11T04:16:18;-0.50;79.60
65408;DHT22;52017;51.230;-2.322;2022-12-11T04:20:01;-0.40;79.60
65408;DHT22;52017;51.230;-2.322;2022-12-11T04:24:12;-0.40;79.60
65408;DHT22;52017;51.230;-2.322;2022-12-11T04:27:57;-0.50;79.60
65408;DHT22;52017;51.230;-2.322;2022-12-11T04:31:39;-0.50;79.60
65408;DHT22;52017;51.230;-2.322;2022-12-11T04:35:21;-0.50;79.60
65408;DHT22;52017;51.230;-2.322;2022-12-11T04:39:04;-0.40;79.60
65408;DHT22;52017;51.230;-2.322;2022-12-11T04:42:47;-0.40;79.50
65408;DHT22;52017;51.230;-2.322;2022-12-11T04:46:29;-0.40;79.50
65408;DHT22;52017;51.230;-2.322;2022-12-11T04:50:12;-0.40;79.50
65408;DHT22;52017;51.230;-2.322;2022-12-11T04:53:55;-0.40;79.50
65408;DHT22;52017;51.230;-2.322;2022-12-11T04:57:37;-0.40;79.40
65408;DHT22;52017;51.230;-2.322;2022-12-11T05:01:20;-0.40;79.50
65408;DHT22;52017;51.230;-2.322;2022-12-11T05:05:05;-0.40;79.50
65408;DHT22;52017;51.230;-2.322;2022-12-11T05:08:47;-0.50;79.40
65408;DHT22;52017;51.230;-2.322;2022-12-11T05:12:31;-0.50;79.40
65408;DHT22;52017;51.230;-2.322;2022-12-11T05:16:15;-0.50;79.40
65408;DHT22;52017;51.230;-2.322;2022-12-11T05:19:57;-0.40;79.40
65408;DHT22;52017;51.230;-2.322;2022-12-11T05:23:40;-0.40;79.40
65408;DHT22;52017;51.230;-2.322;2022-12-11T05:27:22;-0.40;79.40
65408;DHT22;52017;51.230;-2.322;2022-12-11T05:31:07;-0.40;79.40
65408;DHT22;52017;51.230;-2.322;2022-12-11T05:34:49;-0.30;79.40
65408;DHT22;52017;51.230;-2.322;2022-12-11T05:38:31;-0.20;79.40
65408;DHT22;52017;51.230;-2.322;2022-12-11T05:42:16;-0.20;79.40
65408;DHT22;52017;51.230;-2.322;2022-12-11T05:49:51;-0.10;79.40
65408;DHT22;52017;51.230;-2.322;2022-12-11T05:53:38;-0.10;79.40
65408;DHT22;52017;51.230;-2.322;2022-12-11T05:57:21;-0.10;79.40
65408;DHT22;52017;51.230;-2.322;2022-12-11T06:01:12;-0.10;79.40
65408;DHT22;52017;51.230;-2.322;2022-12-11T06:04:54;-0.10;79.50
65408;DHT22;52017;51.230;-2.322;2022-12-11T06:08:37;-0.10;79.40
65408;DHT22;52017;51.230;-2.322;2022-12-11T06:12:19;0.00;79.30
65408;DHT22;52017;51.230;-2.322;2022-12-11T06:16:03;0.00;79.30
65408;DHT22;52017;51.230;-2.322;2022-12-11T06:19:46;0.00;79.30
65408;DHT22;52017;51.230;-2.322;2022-12-11T06:23:28;0.00;79.30
65408;DHT22;52017;51.230;-2.322;2022-12-11T06:27:11;0.00;79.40
65408;DHT22;52017;51.230;-2.322;2022-12-11T06:30:53;0.00;79.30
65408;DHT22;52017;51.230;-2.322;2022-12-11T06:34:34;0.00;79.30
65408;DHT22;52017;51.230;-2.322;2022-12-11T06:38:17;0.00;79.30
65408;DHT22;52017;51.230;-2.322;2022-12-11T06:41:59;0.00;79.40
65408;DHT22;52017;51.230;-2.322;2022-12-11T06:45:41;0.00;79.30
65408;DHT22;52017;51.230;-2.322;2022-12-11T06:49:23;0.00;79.40
65408;DHT22;52017;51.230;-2.322;2022-12-11T06:53:05;0.00;79.40
65408;DHT22;52017;51.230;-2.322;2022-12-11T06:56:47;-0.10;79.40
65408;DHT22;52017;51.230;-2.322;2022-12-11T07:00:29;0.00;79.50
65408;DHT22;52017;51.230;-2.322;2022-12-11T07:04:12;0.00;79.50
65408;DHT22;52017;51.230;-2.322;2022-12-11T07:07:54;-0.10;79.60
65408;DHT22;52017;51.230;-2.322;2022-12-11T07:11:39;0.00;79.60
65408;DHT22;52017;51.230;-2.322;2022-12-11T07:15:22;0.00;79.60
65408;DHT22;52017;51.230;-2.322;2022-12-11T07:19:05;0.00;79.60
65408;DHT22;52017;51.230;-2.322;2022-12-11T07:22:47;0.00;79.60
65408;DHT22;52017;51.230;-2.322;2022-12-11T07:26:29;0.00;79.60
65408;DHT22;52017;51.230;-2.322;2022-12-11T07:30:13;0.00;79.60
65408;DHT22;52017;51.230;-2.322;2022-12-11T07:34:01;0.00;79.60
65408;DHT22;52017;51.230;-2.322;2022-12-11T07:37:43;0.00;79.60
65408;DHT22;52017;51.230;-2.322;2022-12-11T07:41:27;0.00;79.60
65408;DHT22;52017;51.230;-2.322;2022-12-11T07:45:10;0.00;79.60
65408;DHT22;52017;51.230;-2.322;2022-12-11T07:48:52;0.00;79.60
65408;DHT22;52017;51.230;-2.322;2022-12-11T07:52:34;0.10;79.60
65408;DHT22;52017;51.230;-2.322;2022-12-11T07:56:17;0.10;79.70
65408;DHT22;52017;51.230;-2.322;2022-12-11T07:59:59;0.10;79.70
65408;DHT22;52017;51.230;-2.322;2022-12-11T08:03:42;0.00;79.70
65408;DHT22;52017;51.230;-2.322;2022-12-11T08:07:24;0.00;79.80
65408;DHT22;52017;51.230;-2.322;2022-12-11T08:11:09;0.00;79.80
65408;DHT22;52017;51.230;-2.322;2022-12-11T08:14:51;0.10;79.80
65408;DHT22;52017;51.230;-2.322;2022-12-11T08:18:34;0.10;79.90
65408;DHT22;52017;51.230;-2.322;2022-12-11T08:22:16;0.10;79.90
65408;DHT22;52017;51.230;-2.322;2022-12-11T08:26:02;0.10;79.80
65408;DHT22;52017;51.230;-2.322;2022-12-11T08:29:44;0.10;79.80
65408;DHT22;52017;51.230;-2.322;2022-12-11T08:33:28;0.10;79.90
65408;DHT22;52017;51.230;-2.322;2022-12-11T08:37:10;0.10;79.90
65408;DHT22;52017;51.230;-2.322;2022-12-11T08:40:54;0.10;79.90
65408;DHT22;52017;51.230;-2.322;2022-12-11T08:44:36;0.10;80.00
65408;DHT22;52017;51.230;-2.322;2022-12-11T08:48:18;0.10;80.00
65408;DHT22;52017;51.230;-2.322;2022-12-11T08:52:04;0.10;80.00
65408;DHT22;52017;51.230;-2.322;2022-12-11T08:55:46;0.10;80.00
65408;DHT22;52017;51.230;-2.322;2022-12-11T08:59:28;0.20;80.00
65408;DHT22;52017;51.230;-2.322;2022-12-11T09:03:13;0.20;80.10
65408;DHT22;52017;51.230;-2.322;2022-12-11T09:06:55;0.30;80.20
65408;DHT22;52017;51.230;-2.322;2022-12-11T09:10:37;0.20;80.20
65408;DHT22;52017;51.230;-2.322;2022-12-11T09:14:21;0.40;80.20
65408;DHT22;52017;51.230;-2.322;2022-12-11T09:18:03;0.40;80.20
65408;DHT22;52017;51.230;-2.322;2022-12-11T09:21:46;0.40;80.30
65408;DHT22;52017;51.230;-2.322;2022-12-11T09:25:28;0.50;80.30
65408;DHT22;52017;51.230;-2.322;2022-12-11T09:29:11;0.50;80.30
65408;DHT22;52017;51.230;-2.322;2022-12-11T09:32:53;0.50;80.20
65408;DHT22;52017;51.230;-2.322;2022-12-11T09:36:38;0.60;80.30
65408;DHT22;52017;51.230;-2.322;2022-12-11T09:40:20;0.60;80.20
65408;DHT22;52017;51.230;-2.322;2022-12-11T09:48:00;0.60;80.30
65408;DHT22;52017;51.230;-2.322;2022-12-11T09:51:46;0.60;80.20
65408;DHT22;52017;51.230;-2.322;2022-12-11T09:55:52;0.70;80.30
65408;DHT22;52017;51.230;-2.322;2022-12-11T10:07:52;0.80;80.40
65408;DHT22;52017;51.230;-2.322;2022-12-11T10:19:54;0.80;80.50
65408;DHT22;52017;51.230;-2.322;2022-12-11T10:23:43;0.90;80.50
65408;DHT22;52017;51.230;-2.322;2022-12-11T10:27:32;0.90;80.60
65408;DHT22;52017;51.230;-2.322;2022-12-11T10:35:01;1.10;80.60
65408;DHT22;52017;51.230;-2.322;2022-12-11T10:38:46;1.20;80.60
65408;DHT22;52017;51.230;-2.322;2022-12-11T10:42:28;1.30;80.60
65408;DHT22;52017;51.230;-2.322;2022-12-11T10:46:24;1.40;80.50
65408;DHT22;52017;51.230;-2.322;2022-12-11T10:50:07;1.50;80.50
65408;DHT22;52017;51.230;-2.322;2022-12-11T10:53:54;1.50;80.60
65408;DHT22;52017;51.230;-2.322;2022-12-11T10:57:37;1.70;80.60
65408;DHT22;52017;51.230;-2.322;2022-12-11T11:01:22;1.90;80.40
65408;DHT22;52017;51.230;-2.322;2022-12-11T11:05:24;2.00;80.30
65408;DHT22;52017;51.230;-2.322;2022-12-11T11:09:30;2.00;80.20
65408;DHT22;52017;51.230;-2.322;2022-12-11T11:13:15;2.10;80.20
65408;DHT22;52017;51.230;-2.322;2022-12-11T11:17:00;2.10;80.10
65408;DHT22;52017;51.230;-2.322;2022-12-11T11:20:46;2.20;80.10
65408;DHT22;52017;51.230;-2.322;2022-12-11T11:28:21;2.50;80.20
65408;DHT22;52017;51.230;-2.322;2022-12-11T11:32:31;2.70;79.90
65408;DHT22;52017;51.230;-2.322;2022-12-11T11:36:20;3.00;79.30
65408;DHT22;52017;51.230;-2.322;2022-12-11T11:40:24;3.00;79.20
65408;DHT22;52017;51.230;-2.322;2022-12-11T11:44:12;3.00;78.90
65408;DHT22;52017;51.230;-2.322;2022-12-11T12:00:00;2.60;79.40
65408;DHT22;52017;51.230;-2.322;2022-12-11T12:03:51;2.50;79.50
65408;DHT22;52017;51.230;-2.322;2022-12-11T12:07:36;2.50;79.50
65408;DHT22;52017;51.230;-2.322;2022-12-11T12:11:32;2.50;79.60
65408;DHT22;52017;51.230;-2.322;2022-12-11T12:15:45;2.50;79.60
65408;DHT22;52017;51.230;-2.322;2022-12-11T12:19:54;2.60;79.60
65408;DHT22;52017;51.230;-2.322;2022-12-11T12:27:45;2.60;79.60
65408;DHT22;52017;51.230;-2.322;2022-12-11T12:39:53;2.50;79.80
65408;DHT22;52017;51.230;-2.322;2022-12-11T12:47:46;2.40;79.90
65408;DHT22;52017;51.230;-2.322;2022-12-11T12:51:34;2.40;80.00
65408;DHT22;52017;51.230;-2.322;2022-12-11T12:55:27;2.30;80.10
65408;DHT22;52017;51.230;-2.322;2022-12-11T12:59:25;2.20;80.40
65408;DHT22;52017;51.230;-2.322;2022-12-11T13:03:23;2.20;80.70
65408;DHT22;52017;51.230;-2.322;2022-12-11T13:07:19;2.20;80.80
65408;DHT22;52017;51.230;-2.322;2022-12-11T13:11:13;2.20;80.70
65408;DHT22;52017;51.230;-2.322;2022-12-11T13:15:00;2.20;80.70
65408;DHT22;52017;51.230;-2.322;2022-12-11T13:18:49;2.10;80.80
65408;DHT22;52017;51.230;-2.322;2022-12-11T13:22:33;2.20;80.90
65408;DHT22;52017;51.230;-2.322;2022-12-11T13:26:31;2.20;81.00
65408;DHT22;52017;51.230;-2.322;2022-12-11T13:30:25;2.20;81.30
65408;DHT22;52017;51.230;-2.322;2022-12-11T13:34:17;2.20;81.60
65408;DHT22;52017;51.230;-2.322;2022-12-11T13:38:16;2.30;81.20
65408;DHT22;52017;51.230;-2.322;2022-12-11T13:42:39;2.30;81.40
65408;DHT22;52017;51.230;-2.322;2022-12-11T13:46:30;2.30;81.60
65408;DHT22;52017;51.230;-2.322;2022-12-11T13:50:19;2.30;81.20
65408;DHT22;52017;51.230;-2.322;2022-12-11T13:54:13;2.20;81.20
65408;DHT22;52017;51.230;-2.322;2022-12-11T13:57:58;2.20;81.30
65408;DHT22;52017;51.230;-2.322;2022-12-11T14:01:40;2.20;81.40
65408;DHT22;52017;51.230;-2.322;2022-12-11T14:05:26;2.20;81.50
65408;DHT22;52017;51.230;-2.322;2022-12-11T14:09:17;2.10;81.50
65408;DHT22;52017;51.230;-2.322;2022-12-11T14:13:24;2.20;81.60
65408;DHT22;52017;51.230;-2.322;2022-12-11T14:17:16;2.10;82.30
65408;DHT22;52017;51.230;-2.322;2022-12-11T14:21:04;2.10;82.00
65408;DHT22;52017;51.230;-2.322;2022-12-11T14:24:51;2.10;81.90
65408;DHT22;52017;51.230;-2.322;2022-12-11T14:28:44;2.10;82.00
65408;DHT22;52017;51.230;-2.322;2022-12-11T14:32:35;2.10;82.20
65408;DHT22;52017;51.230;-2.322;2022-12-11T14:36:18;2.00;82.20
65408;DHT22;52017;51.230;-2.322;2022-12-11T14:40:09;2.00;82.20
65408;DHT22;52017;51.230;-2.322;2022-12-11T14:44:00;2.10;82.30
65408;DHT22;52017;51.230;-2.322;2022-12-11T14:47:50;2.00;82.30
65408;DHT22;52017;51.230;-2.322;2022-12-11T14:51:39;2.00;82.30
65408;DHT22;52017;51.230;-2.322;2022-12-11T14:55:33;2.10;82.40
65408;DHT22;52017;51.230;-2.322;2022-12-11T14:59:50;2.10;82.40
65408;DHT22;52017;51.230;-2.322;2022-12-11T15:03:38;2.10;82.50
65408;DHT22;52017;51.230;-2.322;2022-12-11T15:07:20;2.10;82.60
65408;DHT22;52017;51.230;-2.322;2022-12-11T15:11:09;2.10;82.60
65408;DHT22;52017;51.230;-2.322;2022-12-11T15:14:59;2.10;82.60
65408;DHT22;52017;51.230;-2.322;2022-12-11T15:18:47;2.10;82.70
65408;DHT22;52017;51.230;-2.322;2022-12-11T15:22:32;2.10;82.60
65408;DHT22;52017;51.230;-2.322;2022-12-11T15:26:14;2.20;82.70
65408;DHT22;52017;51.230;-2.322;2022-12-11T15:29:56;2.20;82.80
65408;DHT22;52017;51.230;-2.322;2022-12-11T15:33:46;2.20;82.80
65408;DHT22;52017;51.230;-2.322;2022-12-11T15:37:33;2.20;83.00
65408;DHT22;52017;51.230;-2.322;2022-12-11T15:41:19;2.20;82.90
65408;DHT22;52017;51.230;-2.322;2022-12-11T15:45:05;2.20;83.00
65408;DHT22;52017;51.230;-2.322;2022-12-11T15:48:49;2.20;83.00
65408;DHT22;52017;51.230;-2.322;2022-12-11T15:52:31;2.20;83.00
65408;DHT22;52017;51.230;-2.322;2022-12-11T15:56:15;2.20;83.00
65408;DHT22;52017;51.230;-2.322;2022-12-11T15:59:57;2.20;83.00
65408;DHT22;52017;51.230;-2.322;2022-12-11T16:03:39;2.20;83.10
65408;DHT22;52017;51.230;-2.322;2022-12-11T16:07:24;2.20;83.10
65408;DHT22;52017;51.230;-2.322;2022-12-11T16:11:08;2.30;83.10
65408;DHT22;52017;51.230;-2.322;2022-12-11T16:14:51;2.30;83.20
65408;DHT22;52017;51.230;-2.322;2022-12-11T16:18:33;2.30;83.20
65408;DHT22;52017;51.230;-2.322;2022-12-11T16:22:16;2.30;83.20
65408;DHT22;52017;51.230;-2.322;2022-12-11T16:25:58;2.30;83.20
65408;DHT22;52017;51.230;-2.322;2022-12-11T16:29:40;2.30;83.20
65408;DHT22;52017;51.230;-2.322;2022-12-11T16:33:22;2.30;83.30
65408;DHT22;52017;51.230;-2.322;2022-12-11T16:37:06;2.30;83.30
65408;DHT22;52017;51.230;-2.322;2022-12-11T16:40:58;2.30;83.30
65408;DHT22;52017;51.230;-2.322;2022-12-11T16:44:40;2.30;83.50
65408;DHT22;52017;51.230;-2.322;2022-12-11T16:48:25;2.30;83.40
65408;DHT22;52017;51.230;-2.322;2022-12-11T16:52:07;2.30;83.40
65408;DHT22;52017;51.230;-2.322;2022-12-11T16:55:50;2.30;83.30
65408;DHT22;52017;51.230;-2.322;2022-12-11T16:59:32;2.30;83.30
65408;DHT22;52017;51.230;-2.322;2022-12-11T17:03:18;2.40;83.30
65408;DHT22;52017;51.230;-2.322;2022-12-11T17:07:00;2.40;83.30
65408;DHT22;52017;51.230;-2.322;2022-12-11T17:10:42;2.40;83.40
65408;DHT22;52017;51.230;-2.322;2022-12-11T17:14:24;2.30;83.40
65408;DHT22;52017;51.230;-2.322;2022-12-11T17:18:07;2.40;83.40
65408;DHT22;52017;51.230;-2.322;2022-12-11T17:21:49;2.40;83.40
65408;DHT22;52017;51.230;-2.322;2022-12-11T17:25:32;2.40;83.40
65408;DHT22;52017;51.230;-2.322;2022-12-11T17:29:14;2.40;83.40
65408;DHT22;52017;51.230;-2.322;2022-12-11T17:32:56;2.40;83.40
65408;DHT22;52017;51.230;-2.322;2022-12-11T17:36:40;2.40;83.40
65408;DHT22;52017;51.230;-2.322;2022-12-11T17:40:22;2.40;83.40
65408;DHT22;52017;51.230;-2.322;2022-12-11T17:44:04;2.40;83.40
65408;DHT22;52017;51.230;-2.322;2022-12-11T17:47:46;2.40;83.40
65408;DHT22;52017;51.230;-2.322;2022-12-11T17:51:28;2.40;83.40
65408;DHT22;52017;51.230;-2.322;2022-12-11T17:55:10;2.40;83.40
65408;DHT22;52017;51.230;-2.322;2022-12-11T17:58:53;2.40;83.40
65408;DHT22;52017;51.230;-2.322;2022-12-11T18:02:35;2.40;83.40
65408;DHT22;52017;51.230;-2.322;2022-12-11T18:06:17;2.40;83.40
65408;DHT22;52017;51.230;-2.322;2022-12-11T18:09:59;2.40;83.40
65408;DHT22;52017;51.230;-2.322;2022-12-11T18:13:42;2.30;83.50
65408;DHT22;52017;51.230;-2.322;2022-12-11T18:17:24;2.40;83.50
65408;DHT22;52017;51.230;-2.322;2022-12-11T18:21:06;2.40;83.50
65408;DHT22;52017;51.230;-2.322;2022-12-11T18:24:49;2.40;83.50
65408;DHT22;52017;51.230;-2.322;2022-12-11T18:28:32;2.40;83.50
65408;DHT22;52017;51.230;-2.322;2022-12-11T18:32:14;2.40;83.50
65408;DHT22;52017;51.230;-2.322;2022-12-11T18:35:56;2.40;83.50
65408;DHT22;52017;51.230;-2.322;2022-12-11T18:39:38;2.40;83.60
65408;DHT22;52017;51.230;-2.322;2022-12-11T18:43:20;2.40;83.60
65408;DHT22;52017;51.230;-2.322;2022-12-11T18:47:02;2.40;83.60
65408;DHT22;52017;51.230;-2.322;2022-12-11T18:50:45;2.40;83.60
65408;DHT22;52017;51.230;-2.322;2022-12-11T18:54:27;2.50;83.60
65408;DHT22;52017;51.230;-2.322;2022-12-11T18:58:15;2.50;83.60
65408;DHT22;52017;51.230;-2.322;2022-12-11T19:01:57;2.40;83.50
65408;DHT22;52017;51.230;-2.322;2022-12-11T19:05:40;2.40;83.60
65408;DHT22;52017;51.230;-2.322;2022-12-11T19:09:24;2.40;83.60
65408;DHT22;52017;51.230;-2.322;2022-12-11T19:13:06;2.40;83.60
65408;DHT22;52017;51.230;-2.322;2022-12-11T19:16:48;2.50;83.60
65408;DHT22;52017;51.230;-2.322;2022-12-11T19:20:34;2.50;83.60
65408;DHT22;52017;51.230;-2.322;2022-12-11T19:24:37;2.50;83.60
65408;DHT22;52017;51.230;-2.322;2022-12-11T19:28:19;2.50;83.70
65408;DHT22;52017;51.230;-2.322;2022-12-11T19:32:03;2.50;83.70
65408;DHT22;52017;51.230;-2.322;2022-12-11T19:35:45;2.50;83.60
65408;DHT22;52017;51.230;-2.322;2022-12-11T19:39:27;2.50;83.60
65408;DHT22;52017;51.230;-2.322;2022-12-11T19:43:10;2.50;83.70
65408;DHT22;52017;51.230;-2.322;2022-12-11T19:46:52;2.50;83.60
65408;DHT22;52017;51.230;-2.322;2022-12-11T19:50:35;2.50;83.60
65408;DHT22;52017;51.230;-2.322;2022-12-11T19:54:17;2.50;83.50
65408;DHT22;52017;51.230;-2.322;2022-12-11T19:57:59;2.50;83.60
65408;DHT22;52017;51.230;-2.322;2022-12-11T20:01:43;2.50;83.60
65408;DHT22;52017;51.230;-2.322;2022-12-11T20:05:27;2.50;83.50
65408;DHT22;52017;51.230;-2.322;2022-12-11T20:09:10;2.50;83.50
65408;DHT22;52017;51.230;-2.322;2022-12-11T20:12:52;2.50;83.50
65408;DHT22;52017;51.230;-2.322;2022-12-11T20:16:37;2.50;83.50
65408;DHT22;52017;51.230;-2.322;2022-12-11T20:20:40;2.50;83.50
65408;DHT22;52017;51.230;-2.322;2022-12-11T20:24:22;2.50;83.50
65408;DHT22;52017;51.230;-2.322;2022-12-11T20:28:04;2.50;83.50
65408;DHT22;52017;51.230;-2.322;2022-12-11T20:31:49;2.50;83.40
65408;DHT22;52017;51.230;-2.322;2022-12-11T20:35:31;2.50;83.30
65408;DHT22;52017;51.230;-2.322;2022-12-11T20:39:13;2.50;83.40
65408;DHT22;52017;51.230;-2.322;2022-12-11T20:42:55;2.50;83.30
65408;DHT22;52017;51.230;-2.322;2022-12-11T20:46:37;2.50;83.30
65408;DHT22;52017;51.230;-2.322;2022-12-11T20:50:19;2.50;83.30
65408;DHT22;52017;51.230;-2.322;2022-12-11T20:54:02;2.50;83.30
65408;DHT22;52017;51.230;-2.322;2022-12-11T20:57:44;2.50;83.30
65408;DHT22;52017;51.230;-2.322;2022-12-11T21:01:29;2.50;83.30
65408;DHT22;52017;51.230;-2.322;2022-12-11T21:05:12;2.50;83.30
65408;DHT22;52017;51.230;-2.322;2022-12-11T21:08:54;2.50;83.30
65408;DHT22;52017;51.230;-2.322;2022-12-11T21:12:36;2.50;83.30
65408;DHT22;52017;51.230;-2.322;2022-12-11T21:16:19;2.50;83.30
65408;DHT22;52017;51.230;-2.322;2022-12-11T21:20:01;2.50;83.30
65408;DHT22;52017;51.230;-2.322;2022-12-11T21:23:44;2.50;83.30
65408;DHT22;52017;51.230;-2.322;2022-12-11T21:27:26;2.50;83.30
65408;DHT22;52017;51.230;-2.322;2022-12-11T21:31:11;2.50;83.30
65408;DHT22;52017;51.230;-2.322;2022-12-11T21:34:54;2.50;83.30
65408;DHT22;52017;51.230;-2.322;2022-12-11T21:38:39;2.50;83.40
65408;DHT22;52017;51.230;-2.322;2022-12-11T21:42:22;2.50;83.30
65408;DHT22;52017;51.230;-2.322;2022-12-11T21:46:09;2.50;83.40
65408;DHT22;52017;51.230;-2.322;2022-12-11T21:49:51;2.50;83.30
65408;DHT22;52017;51.230;-2.322;2022-12-11T21:53:34;2.50;83.20
65408;DHT22;52017;51.230;-2.322;2022-12-11T21:57:16;2.50;83.10
65408;DHT22;52017;51.230;-2.322;2022-12-11T22:01:20;2.50;83.00
65408;DHT22;52017;51.230;-2.322;2022-12-11T22:05:02;2.50;82.90
65408;DHT22;52017;51.230;-2.322;2022-12-11T22:08:45;2.50;83.00
65408;DHT22;52017;51.230;-2.322;2022-12-11T22:12:30;2.50;83.00
65408;DHT22;52017;51.230;-2.322;2022-12-11T22:16:12;2.50;82.90
65408;DHT22;52017;51.230;-2.322;2022-12-11T22:19:54;2.50;83.00
65408;DHT22;52017;51.230;-2.322;2022-12-11T22:23:40;2.50;83.00
65408;DHT22;52017;51.230;-2.322;2022-12-11T22:27:23;2.50;83.00
65408;DHT22;52017;51.230;-2.322;2022-12-11T22:31:09;2.50;83.10
65408;DHT22;52017;51.230;-2.322;2022-12-11T22:34:51;2.50;83.00
65408;DHT22;52017;51.230;-2.322;2022-12-11T22:38:34;2.50;83.10
65408;DHT22;52017;51.230;-2.322;2022-12-11T22:42:17;2.50;83.00
65408;DHT22;52017;51.230;-2.322;2022-12-11T22:45:59;2.50;83.00
65408;DHT22;52017;51.230;-2.322;2022-12-11T22:49:41;2.50;83.00
65408;DHT22;52017;51.230;-2.322;2022-12-11T22:53:23;2.50;83.00
65408;DHT22;52017;51.230;-2.322;2022-12-11T22:57:05;2.50;83.00
65408;DHT22;52017;51.230;-2.322;2022-12-11T23:00:47;2.50;83.10
65408;DHT22;52017;51.230;-2.322;2022-12-11T23:04:29;2.50;83.10
65408;DHT22;52017;51.230;-2.322;2022-12-11T23:08:12;2.50;83.10
65408;DHT22;52017;51.230;-2.322;2022-12-11T23:11:54;2.50;83.10
65408;DHT22;52017;51.230;-2.322;2022-12-11T23:15:39;2.50;83.20
65408;DHT22;52017;51.230;-2.322;2022-12-11T23:19:21;2.50;83.10
65408;DHT22;52017;51.230;-2.322;2022-12-11T23:23:06;2.60;83.00
65408;DHT22;52017;51.230;-2.322;2022-12-11T23:26:49;2.50;83.00
65408;DHT22;52017;51.230;-2.322;2022-12-11T23:30:32;2.60;83.00
65408;DHT22;52017;51.230;-2.322;2022-12-11T23:34:14;2.60;82.90
65408;DHT22;52017;51.230;-2.322;2022-12-11T23:37:56;2.60;82.80
65408;DHT22;52017;51.230;-2.322;2022-12-11T23:41:38;2.60;82.80
65408;DHT22;52017;51.230;-2.322;2022-12-11T23:45:20;2.60;82.80
65408;DHT22;52017;51.230;-2.322;2022-12-11T23:49:03;2.60;82.80
65408;DHT22;52017;51.230;-2.322;2022-12-11T23:52:46;2.70;82.80
65408;DHT22;52017;51.230;-2.322;2022-12-11T23:56:28;2.70;82.80
